createdAt,value
2019-03-09T00:01:02.423Z,3.50
2019-03-09T00:03:31.541Z,1.90
2019-03-09T00:06:00.670Z,2.52
2019-03-09T00:08:29.870Z,2.83
2019-03-09T00:10:58.991Z,1.55
2019-03-09T00:13:28.113Z,1.45
2019-03-09T00:15:57.239Z,2.22
2019-03-09T00:18:26.352Z,1.52
2019-03-09T00:20:55.468Z,2.58
2019-03-09T00:23:29.045Z,3.00
2019-03-09T00:26:08.864Z,3.90
2019-03-09T00:28:42.390Z,2.30
2019-03-09T00:31:16.073Z,1.52
2019-03-09T00:33:45.199Z,2.60
2019-03-09T00:36:14.312Z,1.50
2019-03-09T00:38:43.435Z,3.22
2019-03-09T00:41:12.546Z,2.70
2019-03-09T00:43:41.676Z,2.20
2019-03-09T00:46:11.124Z,2.15
2019-03-09T00:48:40.264Z,1.95
2019-03-09T00:51:09.397Z,2.25
2019-03-09T00:53:38.496Z,2.10
2019-03-09T00:56:07.612Z,2.12
2019-03-09T00:58:36.754Z,1.62
2019-03-09T01:01:05.866Z,1.62
2019-03-09T01:03:34.974Z,2.37
2019-03-09T01:06:04.106Z,2.08
2019-03-09T01:08:33.229Z,2.10
2019-03-09T01:11:02.354Z,3.37
2019-03-09T01:13:31.471Z,1.70
2019-03-09T01:16:00.601Z,3.02
2019-03-09T01:18:29.710Z,1.87
2019-03-09T01:20:58.838Z,3.40
2019-03-09T01:23:27.954Z,1.90
2019-03-09T01:25:57.063Z,2.02
2019-03-09T01:28:26.198Z,1.67
2019-03-09T01:30:55.326Z,1.60
2019-03-09T01:33:24.409Z,1.57
2019-03-09T01:35:53.531Z,1.90
2019-03-09T01:38:22.640Z,1.67
2019-03-09T01:40:51.754Z,1.98
2019-03-09T01:43:20.879Z,2.42
2019-03-09T01:45:49.990Z,2.95
2019-03-09T01:48:19.104Z,2.52
2019-03-09T01:50:48.527Z,2.42
2019-03-09T01:53:17.632Z,1.90
2019-03-09T01:55:46.992Z,1.50
2019-03-09T01:58:16.118Z,2.25
2019-03-09T02:00:45.234Z,1.60
2019-03-09T02:03:14.347Z,1.98
2019-03-09T02:05:43.474Z,2.02
2019-03-09T02:08:12.635Z,1.67
2019-03-09T02:10:41.718Z,2.05
2019-03-09T02:13:10.848Z,1.60
2019-03-09T02:15:39.962Z,3.02
2019-03-09T02:18:09.069Z,1.82
2019-03-09T02:20:38.199Z,1.65
2019-03-09T02:23:07.302Z,2.10
2019-03-09T02:25:36.414Z,3.12
2019-03-09T02:28:05.540Z,2.10
2019-03-09T02:30:34.660Z,1.55
2019-03-09T02:33:03.777Z,2.02
2019-03-09T02:35:33.164Z,1.60
2019-03-09T02:38:03.935Z,2.22
2019-03-09T02:40:33.046Z,2.90
2019-03-09T02:43:02.525Z,1.60
2019-03-09T02:45:32.813Z,1.87
2019-03-09T02:48:01.919Z,2.33
2019-03-09T02:50:31.066Z,1.85
2019-03-09T02:53:00.227Z,1.70
2019-03-09T02:55:29.366Z,1.62
2019-03-09T02:57:58.494Z,1.67
2019-03-09T03:00:29.248Z,1.25
2019-03-09T03:03:06.361Z,2.12
2019-03-09T03:05:35.475Z,1.65
2019-03-09T03:08:04.597Z,1.55
2019-03-09T03:10:33.732Z,1.40
2019-03-09T03:13:02.849Z,1.55
2019-03-09T03:15:38.216Z,1.92
2019-03-09T03:18:07.357Z,3.67
2019-03-09T03:20:36.777Z,1.70
2019-03-09T03:23:05.911Z,1.57
2019-03-09T03:25:35.038Z,4.45
2019-03-09T03:28:04.154Z,1.55
2019-03-09T03:30:33.278Z,1.40
2019-03-09T03:33:02.416Z,1.62
2019-03-09T03:35:31.519Z,1.25
2019-03-09T03:38:00.644Z,3.80
2019-03-09T03:40:29.768Z,1.50
2019-03-09T03:42:58.883Z,1.52
2019-03-09T03:45:28.034Z,3.08
2019-03-09T03:47:57.377Z,1.85
2019-03-09T03:50:26.500Z,1.57
2019-03-09T03:52:55.626Z,1.92
2019-03-09T03:55:24.730Z,1.50
2019-03-09T03:57:53.838Z,2.05
2019-03-09T04:00:22.981Z,2.70
2019-03-09T04:02:52.102Z,3.40
2019-03-09T04:05:21.208Z,4.00
2019-03-09T04:07:50.333Z,3.12
2019-03-09T04:10:19.455Z,1.55
2019-03-09T04:12:48.584Z,3.42
2019-03-09T04:15:17.708Z,3.62
2019-03-09T04:17:46.815Z,3.08
2019-03-09T04:20:15.954Z,2.12
2019-03-09T04:22:45.088Z,3.25
2019-03-09T04:25:14.214Z,3.47
2019-03-09T04:27:43.343Z,2.10
2019-03-09T04:30:13.596Z,2.52
2019-03-09T04:32:42.723Z,1.95
2019-03-09T04:35:11.826Z,1.60
2019-03-09T04:37:40.962Z,3.00
2019-03-09T04:40:14.445Z,1.82
2019-03-09T04:42:43.564Z,1.30
2019-03-09T04:45:13.616Z,2.58
2019-03-09T04:47:42.729Z,2.45
2019-03-09T04:50:14.062Z,2.02
2019-03-09T04:52:43.185Z,1.92
2019-03-09T04:55:12.297Z,1.72
2019-03-09T04:57:41.412Z,3.77
2019-03-09T05:00:13.352Z,2.20
2019-03-09T05:02:42.471Z,2.47
2019-03-09T05:05:12.385Z,1.62
2019-03-09T05:07:45.528Z,1.52
2019-03-09T05:10:19.224Z,3.02
2019-03-09T05:12:53.554Z,2.75
2019-03-09T05:15:22.753Z,6.55
2019-03-09T05:17:51.864Z,2.40
2019-03-09T05:20:20.999Z,2.25
2019-03-09T05:22:50.106Z,3.22
2019-03-09T05:25:19.224Z,2.95
2019-03-09T05:27:48.350Z,2.33
2019-03-09T05:30:41.478Z,2.70
2019-03-09T05:33:10.871Z,4.37
2019-03-09T05:35:41.101Z,2.55
2019-03-09T05:38:10.250Z,3.75
2019-03-09T05:40:39.401Z,2.75
2019-03-09T05:43:08.589Z,4.42
2019-03-09T05:45:37.696Z,2.55
2019-03-09T05:48:06.834Z,3.12
2019-03-09T05:50:35.954Z,2.72
2019-03-09T05:53:17.636Z,1.98
2019-03-09T05:55:46.793Z,2.67
2019-03-09T05:58:15.896Z,2.70
2019-03-09T06:00:45.063Z,3.45
2019-03-09T06:03:14.172Z,4.47
2019-03-09T06:05:46.537Z,4.30
2019-03-09T06:08:15.665Z,2.62
2019-03-09T06:10:44.770Z,4.80
2019-03-09T06:13:13.903Z,2.72
2019-03-09T06:15:42.849Z,3.42
2019-03-09T06:18:11.956Z,3.02
2019-03-09T06:20:41.073Z,2.95
2019-03-09T06:23:10.003Z,5.40
2019-03-09T06:25:39.152Z,3.65
2019-03-09T06:28:08.317Z,7.47
2019-03-09T06:30:37.452Z,5.40
2019-03-09T06:33:24.013Z,4.42
2019-03-09T06:36:19.011Z,4.33
2019-03-09T06:38:58.303Z,3.77
2019-03-09T06:41:43.827Z,4.65
2019-03-09T06:44:12.997Z,3.80
2019-03-09T06:46:42.168Z,3.85
2019-03-09T06:49:11.305Z,4.97
2019-03-09T06:51:40.405Z,5.92
2019-03-09T06:54:09.517Z,4.55
2019-03-09T06:56:38.671Z,3.10
2019-03-09T06:59:07.798Z,5.28
2019-03-09T07:01:38.184Z,5.30
2019-03-09T07:04:07.422Z,6.05
2019-03-09T07:06:36.572Z,4.67
2019-03-09T07:09:48.177Z,4.10
2019-03-09T07:12:14.900Z,6.03
2019-03-09T07:18:07.954Z,3.42
2019-03-09T07:20:39.035Z,4.75
2019-03-09T07:23:24.631Z,3.30
2019-03-09T07:25:54.584Z,9.70
2019-03-09T07:28:32.796Z,7.50
2019-03-09T07:31:02.383Z,9.40
2019-03-09T07:33:31.560Z,16.32
2019-03-09T07:36:00.969Z,16.57
2019-03-09T07:38:30.880Z,15.30
2019-03-09T07:41:06.584Z,10.13
2019-03-09T07:43:36.927Z,10.18
2019-03-09T07:46:15.614Z,11.50
2019-03-09T07:49:01.958Z,6.53
2019-03-09T07:51:31.084Z,11.95
2019-03-09T07:54:01.631Z,12.20
2019-03-09T07:56:38.175Z,8.90
2019-03-09T07:59:09.421Z,9.53
2019-03-09T08:01:52.195Z,10.30
2019-03-09T08:04:56.448Z,10.85
2019-03-09T08:07:43.795Z,10.40
2019-03-09T08:10:22.783Z,13.80
2019-03-09T08:12:53.839Z,18.07
2019-03-09T08:15:31.216Z,12.40
2019-03-09T08:18:09.657Z,12.15
2019-03-09T08:23:53.725Z,11.78
2019-03-09T08:26:22.945Z,13.03
2019-03-09T08:28:55.434Z,11.97
2019-03-09T08:31:24.711Z,13.53
2019-03-09T08:33:53.889Z,7.78
2019-03-09T08:36:22.984Z,13.88
2019-03-09T08:38:52.122Z,13.93
2019-03-09T08:41:26.575Z,10.60
2019-03-09T08:44:08.800Z,10.40
2019-03-09T08:46:38.267Z,16.17
2019-03-09T08:52:19.408Z,10.18
2019-03-09T08:54:48.556Z,8.75
2019-03-09T08:57:17.673Z,11.85
2019-03-09T08:59:46.828Z,9.78
2019-03-09T09:02:15.975Z,5.78
2019-03-09T09:04:45.058Z,11.38
2019-03-09T09:07:14.200Z,6.00
2019-03-09T09:09:43.312Z,7.00
2019-03-09T09:12:12.460Z,10.78
2019-03-09T09:14:41.591Z,16.80
2019-03-09T09:17:10.694Z,8.85
2019-03-09T09:19:39.813Z,9.75
2019-03-09T09:22:08.994Z,8.55
2019-03-09T09:24:38.127Z,10.45
2019-03-09T09:27:07.315Z,7.58
2019-03-09T09:29:36.443Z,9.80
2019-03-09T09:32:16.088Z,8.80
2019-03-09T09:34:45.244Z,12.15
2019-03-09T09:37:14.361Z,8.63
2019-03-09T09:39:43.741Z,14.78
2019-03-09T09:42:12.915Z,6.15
2019-03-09T09:44:42.044Z,9.28
2019-03-09T09:47:11.153Z,7.37
2019-03-09T09:49:40.306Z,11.08
2019-03-09T09:52:09.552Z,8.48
2019-03-09T09:54:38.685Z,10.08
2019-03-09T09:57:07.817Z,11.03
2019-03-09T09:59:36.945Z,12.15
2019-03-09T10:02:06.074Z,7.17
2019-03-09T10:04:35.198Z,6.60
2019-03-09T10:07:04.313Z,8.83
2019-03-09T10:09:33.446Z,9.63
2019-03-09T10:12:02.574Z,7.05
2019-03-09T10:14:31.717Z,7.53
2019-03-09T10:17:00.835Z,16.75
2019-03-09T10:19:30.047Z,20.57
2019-03-09T10:22:08.418Z,13.10
2019-03-09T10:24:37.545Z,17.57
2019-03-09T10:27:07.751Z,20.65
2019-03-09T10:29:36.893Z,15.63
2019-03-09T10:32:06.036Z,14.80
2019-03-09T10:34:35.383Z,14.05
2019-03-09T10:37:04.509Z,11.63
2019-03-09T10:39:33.680Z,11.78
2019-03-09T10:42:02.808Z,12.03
2019-03-09T10:44:31.960Z,13.70
2019-03-09T10:47:01.106Z,11.00
2019-03-09T10:49:40.300Z,12.68
2019-03-09T10:52:09.506Z,11.22
2019-03-09T10:54:38.626Z,10.78
2019-03-09T10:57:07.834Z,7.03
2019-03-09T10:59:42.536Z,14.23
2019-03-09T11:02:11.771Z,13.95
2019-03-09T11:04:40.919Z,17.25
2019-03-09T11:07:10.051Z,14.93
2019-03-09T11:09:39.144Z,23.22
2019-03-09T11:12:08.261Z,18.52
2019-03-09T11:14:37.379Z,21.45
2019-03-09T11:17:06.496Z,19.37
2019-03-09T11:19:35.629Z,19.30
2019-03-09T11:22:16.304Z,23.20
2019-03-09T11:24:48.488Z,25.02
2019-03-09T11:27:18.700Z,17.37
2019-03-09T11:29:54.747Z,19.98
2019-03-09T11:32:25.112Z,15.80
2019-03-09T11:34:55.087Z,18.98
2019-03-09T11:37:24.799Z,26.12
2019-03-09T11:39:55.489Z,23.20
2019-03-09T11:42:29.581Z,24.45
2019-03-09T11:44:59.395Z,22.30
2019-03-09T11:47:28.568Z,19.67
2019-03-09T11:49:57.705Z,19.15
2019-03-09T11:52:34.803Z,20.52
2019-03-09T11:55:04.292Z,18.35
2019-03-09T11:57:38.754Z,21.77
2019-03-09T12:00:20.855Z,14.65
2019-03-09T12:02:49.983Z,24.52
2019-03-09T12:05:19.112Z,20.45
2019-03-09T12:07:48.237Z,20.85
2019-03-09T12:10:17.358Z,20.15
2019-03-09T12:12:46.483Z,12.60
2019-03-09T12:15:17.230Z,13.55
2019-03-09T12:17:49.709Z,14.30
2019-03-09T12:20:26.409Z,17.32
2019-03-09T12:23:01.925Z,16.30
2019-03-09T12:25:37.734Z,16.32
2019-03-09T12:28:09.058Z,13.85
2019-03-09T12:30:39.398Z,13.93
2019-03-09T12:33:09.033Z,11.38
2019-03-09T12:38:09.577Z,12.23
2019-03-09T12:40:41.352Z,12.28
2019-03-09T12:43:10.449Z,16.42
2019-03-09T12:45:39.600Z,12.45
2019-03-09T12:48:08.753Z,12.55
2019-03-09T12:50:37.874Z,10.38
2019-03-09T12:53:06.980Z,8.68
2019-03-09T12:55:36.139Z,9.35
2019-03-09T12:58:05.262Z,10.30
2019-03-09T13:00:34.416Z,8.03
2019-03-09T13:03:03.569Z,12.68
2019-03-09T13:05:32.696Z,9.35
2019-03-09T13:08:01.819Z,17.27
2019-03-09T13:10:31.015Z,9.73
2019-03-09T13:13:00.134Z,11.12
2019-03-09T13:15:35.444Z,9.25
2019-03-09T13:18:04.245Z,6.95
2019-03-09T13:20:33.402Z,12.47
2019-03-09T13:23:02.510Z,13.30
2019-03-09T13:25:31.636Z,33.58
2019-03-09T13:28:00.786Z,53.35
2019-03-09T13:30:29.909Z,47.00
2019-03-09T13:32:59.029Z,53.10
2019-03-09T13:35:28.149Z,35.30
2019-03-09T13:37:57.273Z,49.73
2019-03-09T13:40:26.407Z,36.63
2019-03-09T13:42:55.534Z,36.73
2019-03-09T13:45:24.653Z,23.55
2019-03-09T13:47:53.782Z,30.12
2019-03-09T13:50:22.900Z,41.65
2019-03-09T13:52:52.016Z,40.58
2019-03-09T13:55:21.151Z,36.80
2019-03-09T13:57:50.268Z,38.28
2019-03-09T14:00:19.820Z,29.27
2019-03-09T14:02:48.960Z,35.13
2019-03-09T14:05:18.070Z,32.28
2019-03-09T14:07:47.188Z,28.30
2019-03-09T14:10:17.347Z,38.13
2019-03-09T14:12:46.458Z,29.80
2019-03-09T14:15:19.663Z,28.35
2019-03-09T14:17:48.787Z,24.75
2019-03-09T14:20:17.894Z,23.67
2019-03-09T14:22:47.085Z,17.55
2019-03-09T14:25:16.296Z,18.05
2019-03-09T14:27:45.432Z,20.90
2019-03-09T14:30:18.397Z,15.95
2019-03-09T14:32:47.509Z,14.63
2019-03-09T14:35:16.706Z,11.48
2019-03-09T14:37:45.837Z,11.57
2019-03-09T14:40:16.172Z,8.88
2019-03-09T14:42:45.271Z,8.10
2019-03-09T14:45:20.628Z,12.68
2019-03-09T14:47:49.742Z,10.70
2019-03-09T14:50:18.883Z,10.55
2019-03-09T14:52:48.347Z,11.88
2019-03-09T14:55:17.456Z,9.43
2019-03-09T14:57:46.588Z,11.83
2019-03-09T15:00:29.172Z,8.30
2019-03-09T15:02:58.286Z,11.53
2019-03-09T15:05:27.393Z,9.10
2019-03-09T15:07:56.540Z,7.92
2019-03-09T15:10:25.957Z,6.55
2019-03-09T15:12:55.048Z,7.72
2019-03-09T15:15:24.181Z,8.83
2019-03-09T15:17:53.301Z,7.97
2019-03-09T15:20:22.418Z,10.35
2019-03-09T15:22:51.545Z,10.68
2019-03-09T15:25:20.821Z,9.03
2019-03-09T15:27:50.200Z,6.33
2019-03-09T15:30:20.215Z,5.60
2019-03-09T15:32:49.322Z,6.97
2019-03-09T15:35:18.747Z,11.97
2019-03-09T15:37:48.009Z,7.78
2019-03-09T15:40:18.470Z,5.83
2019-03-09T15:42:47.572Z,9.48
2019-03-09T15:45:18.375Z,12.28
2019-03-09T15:47:47.484Z,7.67
2019-03-09T15:50:18.243Z,14.25
2019-03-09T15:52:47.436Z,10.98
2019-03-09T15:55:16.561Z,10.93
2019-03-09T15:57:45.751Z,5.12
2019-03-09T16:00:19.766Z,15.38
2019-03-09T16:02:49.099Z,10.65
2019-03-09T16:05:18.160Z,11.63
2019-03-09T16:07:47.347Z,8.20
2019-03-09T16:10:25.142Z,8.88
2019-03-09T16:12:54.275Z,14.58
2019-03-09T16:15:23.458Z,11.30
2019-03-09T16:17:52.575Z,9.23
2019-03-09T16:20:29.987Z,11.22
2019-03-09T16:22:59.108Z,7.87
2019-03-09T16:25:29.102Z,5.28
2019-03-09T16:27:58.402Z,10.88
2019-03-09T16:30:27.520Z,13.00
2019-03-09T16:32:56.639Z,11.10
2019-03-09T16:35:26.369Z,10.05
2019-03-09T16:37:55.593Z,10.85
2019-03-09T16:40:25.761Z,6.33
2019-03-09T16:42:54.869Z,7.53
2019-03-09T16:45:23.992Z,71.92
2019-03-09T16:47:53.109Z,82.70
2019-03-09T16:50:22.241Z,85.95
2019-03-09T16:52:51.391Z,99.07
2019-03-09T16:55:20.525Z,91.82
2019-03-09T16:57:49.658Z,102.82
2019-03-09T17:00:25.453Z,89.28
2019-03-09T17:02:54.609Z,73.75
2019-03-09T17:05:23.724Z,73.60
2019-03-09T17:07:52.840Z,56.63
2019-03-09T17:10:21.970Z,57.85
2019-03-09T17:12:51.087Z,55.43
2019-03-09T17:15:26.393Z,54.35
2019-03-09T17:17:55.528Z,57.88
2019-03-09T17:20:24.667Z,41.88
2019-03-09T17:22:53.816Z,60.05
2019-03-09T17:25:22.940Z,40.10
2019-03-09T17:27:52.090Z,55.60
2019-03-09T17:30:21.882Z,36.73
2019-03-09T17:32:51.001Z,37.65
2019-03-09T17:35:20.118Z,25.68
2019-03-09T17:37:49.239Z,25.72
2019-03-09T17:40:18.622Z,65.25
2019-03-09T17:42:47.736Z,105.55
2019-03-09T17:45:20.442Z,140.68
2019-03-09T17:47:49.567Z,144.30
2019-03-09T17:50:18.688Z,139.37
2019-03-09T17:52:47.890Z,148.07
2019-03-09T17:55:17.021Z,116.60
2019-03-09T17:57:46.142Z,109.25
2019-03-09T18:00:25.817Z,102.02
2019-03-09T18:05:23.582Z,119.45
2019-03-09T18:07:52.698Z,95.97
2019-03-09T18:10:38.021Z,75.37
2019-03-09T18:13:07.147Z,71.65
2019-03-09T18:15:36.264Z,56.60
2019-03-09T18:18:05.378Z,67.40
2019-03-09T18:20:34.507Z,51.35
2019-03-09T18:23:03.621Z,49.25
2019-03-09T18:25:32.731Z,41.60
2019-03-09T18:28:01.874Z,48.25
2019-03-09T18:30:30.987Z,36.73
2019-03-09T18:33:00.116Z,33.75
2019-03-09T18:35:29.227Z,42.48
2019-03-09T18:37:58.350Z,25.90
2019-03-09T18:40:27.462Z,33.00
2019-03-09T18:42:56.591Z,37.17
2019-03-09T18:45:26.290Z,30.50
2019-03-09T18:50:24.191Z,21.12
2019-03-09T18:52:53.299Z,21.60
2019-03-09T18:55:22.414Z,24.30
2019-03-09T18:57:51.541Z,17.77
2019-03-09T19:00:21.858Z,19.75
2019-03-09T19:02:50.976Z,20.55
2019-03-09T19:05:20.104Z,23.40
2019-03-09T19:07:49.223Z,14.05
2019-03-09T19:10:23.549Z,17.48
2019-03-09T19:12:52.676Z,17.57
2019-03-09T19:15:21.784Z,12.70
2019-03-09T19:17:50.901Z,19.85
2019-03-09T19:20:21.140Z,22.75
2019-03-09T19:22:50.499Z,14.43
2019-03-09T19:25:19.608Z,17.27
2019-03-09T19:27:48.987Z,8.90
2019-03-09T19:30:22.221Z,15.18
2019-03-09T19:32:59.890Z,11.45
2019-03-09T19:35:22.162Z,8.38
2019-03-09T19:37:51.274Z,15.23
2019-03-09T19:40:21.689Z,7.62
2019-03-09T19:42:50.850Z,12.65
2019-03-09T19:45:21.472Z,30.90
2019-03-09T19:47:50.587Z,19.92
2019-03-09T19:50:22.488Z,13.68
2019-03-09T19:52:51.941Z,17.25
2019-03-09T19:55:21.053Z,16.95
2019-03-09T19:57:50.181Z,14.13
2019-03-09T20:00:20.703Z,12.15
2019-03-09T20:02:50.073Z,15.60
2019-03-09T20:05:19.204Z,12.00
2019-03-09T20:07:48.690Z,11.55
2019-03-09T20:10:22.276Z,11.08
2019-03-09T20:12:51.769Z,7.12
2019-03-09T20:15:21.365Z,9.33
2019-03-09T20:20:19.291Z,10.90
2019-03-09T20:22:48.393Z,4.87
2019-03-09T20:25:17.513Z,8.88
2019-03-09T20:27:46.647Z,7.40
2019-03-09T20:30:20.904Z,8.43
2019-03-09T20:32:50.014Z,5.65
2019-03-09T20:35:19.164Z,7.12
2019-03-09T20:37:48.287Z,8.40
2019-03-09T20:40:19.035Z,7.80
2019-03-09T20:42:48.225Z,7.90
2019-03-09T20:45:22.610Z,6.35
2019-03-09T20:47:51.753Z,8.38
2019-03-09T20:50:24.805Z,6.53
2019-03-09T20:52:54.733Z,4.15
2019-03-09T20:55:23.876Z,5.75
2019-03-09T20:57:52.989Z,7.50
2019-03-09T21:00:23.464Z,5.37
2019-03-09T21:02:52.863Z,7.17
2019-03-09T21:05:21.987Z,5.90
2019-03-09T21:07:51.103Z,3.35
2019-03-09T21:10:21.133Z,4.00
2019-03-09T21:13:06.651Z,5.55
2019-03-09T21:15:37.157Z,4.37
2019-03-09T21:18:06.281Z,4.30
2019-03-09T21:20:35.381Z,5.87
2019-03-09T21:23:05.426Z,7.62
2019-03-09T21:25:35.521Z,6.17
2019-03-09T21:28:05.537Z,6.85
2019-03-09T21:30:34.660Z,6.87
2019-03-09T21:33:09.306Z,2.52
2019-03-09T21:35:35.705Z,3.90
2019-03-09T21:38:04.832Z,3.22
2019-03-09T21:40:33.954Z,4.72
2019-03-09T21:43:03.064Z,6.45
2019-03-09T21:45:32.192Z,4.10
2019-03-09T21:48:01.302Z,13.05
2019-03-09T21:50:30.434Z,7.72
2019-03-09T21:52:59.564Z,13.05
2019-03-09T21:55:28.667Z,6.47
2019-03-09T21:57:57.778Z,3.33
2019-03-09T22:00:26.916Z,6.35
2019-03-09T22:02:56.038Z,11.45
2019-03-09T22:05:25.147Z,8.45
2019-03-09T22:07:55.812Z,6.42
2019-03-09T22:10:25.547Z,9.80
2019-03-09T22:12:54.644Z,3.33
2019-03-09T22:15:23.771Z,7.42
2019-03-09T22:17:52.888Z,5.03
2019-03-09T22:20:21.990Z,2.83
2019-03-09T22:22:51.113Z,6.80
2019-03-09T22:25:20.220Z,4.97
2019-03-09T22:27:49.339Z,2.00
2019-03-09T22:30:22.922Z,5.08
2019-03-09T22:32:52.025Z,5.47
2019-03-09T22:35:21.148Z,3.27
2019-03-09T22:37:50.264Z,7.08
2019-03-09T22:40:22.391Z,4.33
2019-03-09T22:42:51.498Z,3.47
2019-03-09T22:45:20.608Z,3.02
2019-03-09T22:47:49.725Z,5.47
2019-03-09T22:50:24.953Z,5.05
2019-03-09T22:52:54.067Z,4.20
2019-03-09T22:55:23.177Z,3.98
2019-03-09T22:57:52.472Z,3.02
2019-03-09T23:00:26.686Z,3.83
2019-03-09T23:02:55.795Z,3.02
2019-03-09T23:05:24.908Z,3.33
2019-03-09T23:07:54.018Z,3.98
2019-03-09T23:10:26.962Z,4.87
2019-03-09T23:12:56.085Z,4.83
2019-03-09T23:15:25.193Z,3.15
2019-03-09T23:17:54.301Z,4.78
2019-03-09T23:20:23.425Z,2.77
2019-03-09T23:22:52.532Z,5.10
2019-03-09T23:25:21.697Z,3.85
2019-03-09T23:27:50.768Z,4.00
2019-03-09T23:30:21.387Z,2.52
2019-03-09T23:32:50.497Z,4.53
2019-03-09T23:35:20.390Z,4.08
2019-03-09T23:37:49.501Z,8.20
2019-03-09T23:40:23.217Z,2.37
2019-03-09T23:42:52.342Z,4.90
2019-03-09T23:45:26.805Z,3.70
2019-03-09T23:47:55.918Z,3.50
2019-03-09T23:50:25.040Z,2.50
2019-03-09T23:52:54.217Z,3.15
2019-03-09T23:55:23.348Z,4.55
2019-03-09T23:57:52.527Z,2.22
